sensor_id;sensor_type;location;lat;lon;timestamp;temperature;humidity
2212;DHT22;48849;48.758;9.158;2023-05-20T00:00:44;15.00;99.90
2212;DHT22;48849;48.758;9.158;2023-05-20T00:03:12;15.00;99.90
2212;DHT22;48849;48.758;9.158;2023-05-20T00:05:40;15.00;99.90
2212;DHT22;48849;48.758;9.158;2023-05-20T00:08:07;15.00;99.90
2212;DHT22;48849;48.758;9.158;2023-05-20T00:10:35;15.30;99.90
2212;DHT22;48849;48.758;9.158;2023-05-20T00:13:02;15.00;99.90
2212;DHT22;48849;48.758;9.158;2023-05-20T00:15:29;15.00;99.90
2212;DHT22;48849;48.758;9.158;2023-05-20T00:17:56;15.00;99.90
2212;DHT22;48849;48.758;9.158;2023-05-20T00:20:23;15.10;99.90
2212;DHT22;48849;48.758;9.158;2023-05-20T00:22:51;15.00;99.90
2212;DHT22;48849;48.758;9.158;2023-05-20T00:25:18;15.00;99.90
2212;DHT22;48849;48.758;9.158;2023-05-20T00:27:44;15.00;99.90
2212;DHT22;48849;48.758;9.158;2023-05-20T00:30:12;15.00;99.90
2212;DHT22;48849;48.758;9.158;2023-05-20T00:32:39;15.00;99.90
2212;DHT22;48849;48.758;9.158;2023-05-20T00:35:06;15.00;99.90
2212;DHT22;48849;48.758;9.158;2023-05-20T00:37:33;15.00;99.90
2212;DHT22;48849;48.758;9.158;2023-05-20T00:40:01;15.00;99.90
2212;DHT22;48849;48.758;9.158;2023-05-20T00:42:28;15.10;99.90
2212;DHT22;48849;48.758;9.158;2023-05-20T00:44:55;15.00;99.90
2212;DHT22;48849;48.758;9.158;2023-05-20T00:47:25;15.20;99.90
2212;DHT22;48849;48.758;9.158;2023-05-20T00:49:52;15.00;99.90
2212;DHT22;48849;48.758;9.158;2023-05-20T00:52:19;15.00;99.90
2212;DHT22;48849;48.758;9.158;2023-05-20T00:54:46;15.00;99.90
2212;DHT22;48849;48.758;9.158;2023-05-20T00:57:16;15.00;99.90
2212;DHT22;48849;48.758;9.158;2023-05-20T00:59:42;15.00;99.90
2212;DHT22;48849;48.758;9.158;2023-05-20T01:02:09;15.00;99.90
2212;DHT22;48849;48.758;9.158;2023-05-20T01:04:36;15.00;99.90
2212;DHT22;48849;48.758;9.158;2023-05-20T01:07:04;15.30;99.90
2212;DHT22;48849;48.758;9.158;2023-05-20T01:09:32;15.10;99.90
2212;DHT22;48849;48.758;9.158;2023-05-20T01:12:04;15.10;99.90
2212;DHT22;48849;48.758;9.158;2023-05-20T01:14:37;15.10;99.90
2212;DHT22;48849;48.758;9.158;2023-05-20T01:17:07;15.10;99.90
2212;DHT22;48849;48.758;9.158;2023-05-20T01:19:39;15.10;99.90
2212;DHT22;48849;48.758;9.158;2023-05-20T01:22:08;15.10;99.90
2212;DHT22;48849;48.758;9.158;2023-05-20T01:24:39;15.00;99.90
2212;DHT22;48849;48.758;9.158;2023-05-20T01:27:06;15.10;99.90
2212;DHT22;48849;48.758;9.158;2023-05-20T01:29:38;15.10;99.90
2212;DHT22;48849;48.758;9.158;2023-05-20T01:32:08;15.10;99.90
2212;DHT22;48849;48.758;9.158;2023-05-20T01:34:36;15.10;99.90
2212;DHT22;48849;48.758;9.158;2023-05-20T01:37:04;15.10;99.90
2212;DHT22;48849;48.758;9.158;2023-05-20T01:39:33;15.10;99.90
2212;DHT22;48849;48.758;9.158;2023-05-20T01:42:03;15.10;99.90
2212;DHT22;48849;48.758;9.158;2023-05-20T01:44:31;15.10;99.90
2212;DHT22;48849;48.758;9.158;2023-05-20T01:46:59;15.10;99.90
2212;DHT22;48849;48.758;9.158;2023-05-20T01:49:26;15.20;99.90
2212;DHT22;48849;48.758;9.158;2023-05-20T01:51:53;15.20;99.90
2212;DHT22;48849;48.758;9.158;2023-05-20T01:54:20;15.20;99.90
2212;DHT22;48849;48.758;9.158;2023-05-20T01:56:46;15.20;99.90
2212;DHT22;48849;48.758;9.158;2023-05-20T01:59:15;15.20;99.90
2212;DHT22;48849;48.758;9.158;2023-05-20T02:01:41;15.20;99.90
2212;DHT22;48849;48.758;9.158;2023-05-20T02:04:08;15.20;99.90
2212;DHT22;48849;48.758;9.158;2023-05-20T02:06:35;15.20;99.90
2212;DHT22;48849;48.758;9.158;2023-05-20T02:09:01;15.20;99.90
2212;DHT22;48849;48.758;9.158;2023-05-20T02:11:28;15.20;99.90
2212;DHT22;48849;48.758;9.158;2023-05-20T02:13:55;15.30;99.90
2212;DHT22;48849;48.758;9.158;2023-05-20T02:16:23;15.20;99.90
2212;DHT22;48849;48.758;9.158;2023-05-20T02:18:49;15.20;99.90
2212;DHT22;48849;48.758;9.158;2023-05-20T02:21:17;15.20;99.90
2212;DHT22;48849;48.758;9.158;2023-05-20T02:23:44;15.20;99.90
2212;DHT22;48849;48.758;9.158;2023-05-20T02:26:11;15.20;99.90
2212;DHT22;48849;48.758;9.158;2023-05-20T02:28:37;15.10;99.90
2212;DHT22;48849;48.758;9.158;2023-05-20T02:31:08;15.10;99.90
2212;DHT22;48849;48.758;9.158;2023-05-20T02:33:36;15.10;99.90
2212;DHT22;48849;48.758;9.158;2023-05-20T02:36:03;15.10;99.90
2212;DHT22;48849;48.758;9.158;2023-05-20T02:38:29;15.10;99.90
2212;DHT22;48849;48.758;9.158;2023-05-20T02:40:56;15.10;99.90
2212;DHT22;48849;48.758;9.158;2023-05-20T02:43:24;15.10;99.90
2212;DHT22;48849;48.758;9.158;2023-05-20T02:45:51;15.10;99.90
2212;DHT22;48849;48.758;9.158;2023-05-20T02:48:17;15.00;99.90
2212;DHT22;48849;48.758;9.158;2023-05-20T02:50:45;15.00;99.90
2212;DHT22;48849;48.758;9.158;2023-05-20T02:53:12;15.00;99.90
2212;DHT22;48849;48.758;9.158;2023-05-20T02:55:39;15.10;99.90
2212;DHT22;48849;48.758;9.158;2023-05-20T02:58:06;15.00;99.90
2212;DHT22;48849;48.758;9.158;2023-05-20T03:00:33;15.00;99.90
2212;DHT22;48849;48.758;9.158;2023-05-20T03:03:05;15.00;99.90
2212;DHT22;48849;48.758;9.158;2023-05-20T03:05:31;15.00;99.90
2212;DHT22;48849;48.758;9.158;2023-05-20T03:08:07;15.00;99.90
2212;DHT22;48849;48.758;9.158;2023-05-20T03:10:35;14.90;99.90
2212;DHT22;48849;48.758;9.158;2023-05-20T03:13:03;14.90;99.90
2212;DHT22;48849;48.758;9.158;2023-05-20T03:15:32;14.90;99.90
2212;DHT22;48849;48.758;9.158;2023-05-20T03:17:59;14.90;99.90
2212;DHT22;48849;48.758;9.158;2023-05-20T03:20:26;14.90;99.90
2212;DHT22;48849;48.758;9.158;2023-05-20T03:22:53;15.00;99.90
2212;DHT22;48849;48.758;9.158;2023-05-20T03:25:21;14.90;99.90
2212;DHT22;48849;48.758;9.158;2023-05-20T03:27:48;14.90;99.90
2212;DHT22;48849;48.758;9.158;2023-05-20T03:30:15;14.90;99.90
2212;DHT22;48849;48.758;9.158;2023-05-20T03:32:42;14.90;99.90
2212;DHT22;48849;48.758;9.158;2023-05-20T03:35:09;14.90;99.90
2212;DHT22;48849;48.758;9.158;2023-05-20T03:37:35;14.90;99.90
2212;DHT22;48849;48.758;9.158;2023-05-20T03:40:03;14.90;99.90
2212;DHT22;48849;48.758;9.158;2023-05-20T03:42:32;14.90;99.90
2212;DHT22;48849;48.758;9.158;2023-05-20T03:44:58;14.90;99.90
2212;DHT22;48849;48.758;9.158;2023-05-20T03:47:25;14.80;99.90
2212;DHT22;48849;48.758;9.158;2023-05-20T03:49:52;14.80;99.90
2212;DHT22;48849;48.758;9.158;2023-05-20T03:52:19;14.80;99.90
2212;DHT22;48849;48.758;9.158;2023-05-20T03:54:46;14.80;99.90
2212;DHT22;48849;48.758;9.158;2023-05-20T03:57:12;14.80;99.90
2212;DHT22;48849;48.758;9.158;2023-05-20T03:59:40;14.80;99.90
2212;DHT22;48849;48.758;9.158;2023-05-20T04:02:08;14.80;99.90
2212;DHT22;48849;48.758;9.158;2023-05-20T04:04:34;15.50;99.90
2212;DHT22;48849;48.758;9.158;2023-05-20T04:07:02;14.70;99.90
2212;DHT22;48849;48.758;9.158;2023-05-20T04:09:29;14.80;99.90
2212;DHT22;48849;48.758;9.158;2023-05-20T04:11:55;14.80;99.90
2212;DHT22;48849;48.758;9.158;2023-05-20T04:14:22;14.80;99.90
2212;DHT22;48849;48.758;9.158;2023-05-20T04:16:50;14.70;99.90
2212;DHT22;48849;48.758;9.158;2023-05-20T04:19:17;15.00;99.90
2212;DHT22;48849;48.758;9.158;2023-05-20T04:21:45;14.70;99.90
2212;DHT22;48849;48.758;9.158;2023-05-20T04:24:11;14.80;99.90
2212;DHT22;48849;48.758;9.158;2023-05-20T04:26:38;14.80;99.90
2212;DHT22;48849;48.758;9.158;2023-05-20T04:29:04;14.80;99.90
2212;DHT22;48849;48.758;9.158;2023-05-20T04:31:31;14.80;99.90
2212;DHT22;48849;48.758;9.158;2023-05-20T04:33:59;14.80;99.90
2212;DHT22;48849;48.758;9.158;2023-05-20T04:36:27;14.80;99.90
2212;DHT22;48849;48.758;9.158;2023-05-20T04:38:54;14.90;99.90
2212;DHT22;48849;48.758;9.158;2023-05-20T04:41:20;14.90;99.90
2212;DHT22;48849;48.758;9.158;2023-05-20T04:43:47;14.90;99.90
2212;DHT22;48849;48.758;9.158;2023-05-20T04:46:14;14.90;99.90
2212;DHT22;48849;48.758;9.158;2023-05-20T04:48:41;14.90;99.90
2212;DHT22;48849;48.758;9.158;2023-05-20T04:51:10;14.90;99.90
2212;DHT22;48849;48.758;9.158;2023-05-20T04:53:36;14.90;99.90
2212;DHT22;48849;48.758;9.158;2023-05-20T04:56:05;14.90;99.90
2212;DHT22;48849;48.758;9.158;2023-05-20T04:58:32;14.90;99.90
2212;DHT22;48849;48.758;9.158;2023-05-20T05:00:59;15.00;99.90
2212;DHT22;48849;48.758;9.158;2023-05-20T05:03:26;14.90;99.90
2212;DHT22;48849;48.758;9.158;2023-05-20T05:05:55;14.90;99.90
2212;DHT22;48849;48.758;9.158;2023-05-20T05:08:23;15.00;99.90
2212;DHT22;48849;48.758;9.158;2023-05-20T05:10:50;15.00;99.90
2212;DHT22;48849;48.758;9.158;2023-05-20T05:13:17;15.00;99.90
2212;DHT22;48849;48.758;9.158;2023-05-20T05:15:44;15.00;99.90
2212;DHT22;48849;48.758;9.158;2023-05-20T05:18:10;15.10;99.90
2212;DHT22;48849;48.758;9.158;2023-05-20T05:20:37;15.60;99.90
2212;DHT22;48849;48.758;9.158;2023-05-20T05:23:04;15.10;99.90
2212;DHT22;48849;48.758;9.158;2023-05-20T05:25:32;15.10;99.90
2212;DHT22;48849;48.758;9.158;2023-05-20T05:27:59;15.10;99.90
2212;DHT22;48849;48.758;9.158;2023-05-20T05:30:26;15.20;99.90
2212;DHT22;48849;48.758;9.158;2023-05-20T05:32:52;15.20;99.90
2212;DHT22;48849;48.758;9.158;2023-05-20T05:35:19;15.30;99.90
2212;DHT22;48849;48.758;9.158;2023-05-20T05:37:46;15.20;99.90
2212;DHT22;48849;48.758;9.158;2023-05-20T05:40:13;15.20;99.90
2212;DHT22;48849;48.758;9.158;2023-05-20T05:42:41;15.30;99.90
2212;DHT22;48849;48.758;9.158;2023-05-20T05:45:08;15.30;99.90
2212;DHT22;48849;48.758;9.158;2023-05-20T05:47:35;15.30;99.90
2212;DHT22;48849;48.758;9.158;2023-05-20T05:50:02;15.30;99.90
2212;DHT22;48849;48.758;9.158;2023-05-20T05:52:29;15.30;99.90
2212;DHT22;48849;48.758;9.158;2023-05-20T05:54:56;15.30;99.90
2212;DHT22;48849;48.758;9.158;2023-05-20T05:57:22;15.30;99.90
2212;DHT22;48849;48.758;9.158;2023-05-20T05:59:50;15.40;99.90
2212;DHT22;48849;48.758;9.158;2023-05-20T06:02:17;15.40;99.90
2212;DHT22;48849;48.758;9.158;2023-05-20T06:04:44;15.40;99.90
2212;DHT22;48849;48.758;9.158;2023-05-20T06:07:10;15.50;99.90
2212;DHT22;48849;48.758;9.158;2023-05-20T06:09:38;15.60;99.90
2212;DHT22;48849;48.758;9.158;2023-05-20T06:12:05;15.50;99.90
2212;DHT22;48849;48.758;9.158;2023-05-20T06:14:32;15.50;99.90
2212;DHT22;48849;48.758;9.158;2023-05-20T06:17:00;15.50;99.90
2212;DHT22;48849;48.758;9.158;2023-05-20T06:19:26;15.60;99.90
2212;DHT22;48849;48.758;9.158;2023-05-20T06:21:53;15.60;99.90
2212;DHT22;48849;48.758;9.158;2023-05-20T06:24:20;15.60;99.90
2212;DHT22;48849;48.758;9.158;2023-05-20T06:26:46;15.60;99.90
2212;DHT22;48849;48.758;9.158;2023-05-20T06:29:14;15.60;99.90
2212;DHT22;48849;48.758;9.158;2023-05-20T06:31:41;15.70;99.90
2212;DHT22;48849;48.758;9.158;2023-05-20T06:34:10;15.80;99.90
2212;DHT22;48849;48.758;9.158;2023-05-20T06:36:36;15.70;99.90
2212;DHT22;48849;48.758;9.158;2023-05-20T06:39:03;15.70;99.90
2212;DHT22;48849;48.758;9.158;2023-05-20T06:41:35;15.80;99.90
2212;DHT22;48849;48.758;9.158;2023-05-20T06:44:02;15.80;99.90
2212;DHT22;48849;48.758;9.158;2023-05-20T06:46:29;15.80;99.90
2212;DHT22;48849;48.758;9.158;2023-05-20T06:48:55;15.80;99.90
2212;DHT22;48849;48.758;9.158;2023-05-20T06:51:23;15.80;99.90
2212;DHT22;48849;48.758;9.158;2023-05-20T06:53:51;15.80;99.90
2212;DHT22;48849;48.758;9.158;2023-05-20T06:56:18;15.90;99.90
2212;DHT22;48849;48.758;9.158;2023-05-20T06:58:45;15.90;99.90
2212;DHT22;48849;48.758;9.158;2023-05-20T07:01:12;16.00;99.90
2212;DHT22;48849;48.758;9.158;2023-05-20T07:03:39;15.90;99.90
2212;DHT22;48849;48.758;9.158;2023-05-20T07:06:07;16.00;99.90
2212;DHT22;48849;48.758;9.158;2023-05-20T07:08:35;16.00;99.90
2212;DHT22;48849;48.758;9.158;2023-05-20T07:11:01;16.00;99.90
2212;DHT22;48849;48.758;9.158;2023-05-20T07:13:29;16.10;99.90
2212;DHT22;48849;48.758;9.158;2023-05-20T07:15:56;16.10;99.90
2212;DHT22;48849;48.758;9.158;2023-05-20T07:18:22;16.10;99.90
2212;DHT22;48849;48.758;9.158;2023-05-20T07:20:49;16.10;99.90
2212;DHT22;48849;48.758;9.158;2023-05-20T07:23:16;16.10;99.90
2212;DHT22;48849;48.758;9.158;2023-05-20T07:25:44;16.10;99.90
2212;DHT22;48849;48.758;9.158;2023-05-20T07:28:10;16.20;99.90
2212;DHT22;48849;48.758;9.158;2023-05-20T07:30:37;16.30;99.90
2212;DHT22;48849;48.758;9.158;2023-05-20T07:33:04;16.30;99.90
2212;DHT22;48849;48.758;9.158;2023-05-20T07:35:30;16.30;99.90
2212;DHT22;48849;48.758;9.158;2023-05-20T07:37:57;16.40;99.90
2212;DHT22;48849;48.758;9.158;2023-05-20T07:40:24;16.40;99.90
2212;DHT22;48849;48.758;9.158;2023-05-20T07:42:52;16.40;99.90
2212;DHT22;48849;48.758;9.158;2023-05-20T07:45:19;16.40;99.90
2212;DHT22;48849;48.758;9.158;2023-05-20T07:47:46;16.70;99.90
2212;DHT22;48849;48.758;9.158;2023-05-20T07:50:12;16.50;99.90
2212;DHT22;48849;48.758;9.158;2023-05-20T07:52:39;16.50;99.90
2212;DHT22;48849;48.758;9.158;2023-05-20T07:55:06;16.50;99.90
2212;DHT22;48849;48.758;9.158;2023-05-20T07:57:33;16.50;99.90
2212;DHT22;48849;48.758;9.158;2023-05-20T08:00:01;16.50;99.90
2212;DHT22;48849;48.758;9.158;2023-05-20T08:02:28;16.50;99.90
2212;DHT22;48849;48.758;9.158;2023-05-20T08:04:55;16.50;99.90
2212;DHT22;48849;48.758;9.158;2023-05-20T08:07:21;16.50;99.90
2212;DHT22;48849;48.758;9.158;2023-05-20T08:09:48;16.60;99.90
2212;DHT22;48849;48.758;9.158;2023-05-20T08:12:15;16.60;99.90
2212;DHT22;48849;48.758;9.158;2023-05-20T08:14:41;16.60;99.90
2212;DHT22;48849;48.758;9.158;2023-05-20T08:17:10;16.60;99.90
2212;DHT22;48849;48.758;9.158;2023-05-20T08:19:36;16.70;99.90
2212;DHT22;48849;48.758;9.158;2023-05-20T08:22:03;16.70;99.90
2212;DHT22;48849;48.758;9.158;2023-05-20T08:24:32;16.80;99.90
2212;DHT22;48849;48.758;9.158;2023-05-20T08:26:59;16.80;99.90
2212;DHT22;48849;48.758;9.158;2023-05-20T08:29:26;16.80;99.90
2212;DHT22;48849;48.758;9.158;2023-05-20T08:31:55;16.80;99.90
2212;DHT22;48849;48.758;9.158;2023-05-20T08:34:38;16.80;99.90
2212;DHT22;48849;48.758;9.158;2023-05-20T08:37:05;16.80;99.90
2212;DHT22;48849;48.758;9.158;2023-05-20T08:39:32;16.80;99.90
2212;DHT22;48849;48.758;9.158;2023-05-20T08:42:07;16.90;99.90
2212;DHT22;48849;48.758;9.158;2023-05-20T08:44:50;16.90;99.90
2212;DHT22;48849;48.758;9.158;2023-05-20T08:47:25;16.90;99.90
2212;DHT22;48849;48.758;9.158;2023-05-20T08:50:03;17.00;99.90
2212;DHT22;48849;48.758;9.158;2023-05-20T08:52:41;16.90;99.90
2212;DHT22;48849;48.758;9.158;2023-05-20T08:55:29;16.90;99.90
2212;DHT22;48849;48.758;9.158;2023-05-20T08:58:05;17.00;99.90
2212;DHT22;48849;48.758;9.158;2023-05-20T09:00:49;17.00;99.90
2212;DHT22;48849;48.758;9.158;2023-05-20T09:03:31;17.00;99.90
2212;DHT22;48849;48.758;9.158;2023-05-20T09:06:07;17.00;99.90
2212;DHT22;48849;48.758;9.158;2023-05-20T09:08:51;17.00;99.90
2212;DHT22;48849;48.758;9.158;2023-05-20T09:11:34;17.10;99.90
2212;DHT22;48849;48.758;9.158;2023-05-20T09:14:22;17.10;99.90
2212;DHT22;48849;48.758;9.158;2023-05-20T09:16:53;17.10;99.90
2212;DHT22;48849;48.758;9.158;2023-05-20T09:19:25;17.10;99.90
2212;DHT22;48849;48.758;9.158;2023-05-20T09:21:59;17.20;99.90
2212;DHT22;48849;48.758;9.158;2023-05-20T09:24:32;17.20;99.90
2212;DHT22;48849;48.758;9.158;2023-05-20T09:27:08;17.20;99.90
2212;DHT22;48849;48.758;9.158;2023-05-20T09:29:49;17.20;99.90
2212;DHT22;48849;48.758;9.158;2023-05-20T09:32:31;17.40;99.90
2212;DHT22;48849;48.758;9.158;2023-05-20T09:35:07;17.30;99.90
2212;DHT22;48849;48.758;9.158;2023-05-20T09:37:55;17.40;99.90
2212;DHT22;48849;48.758;9.158;2023-05-20T09:40:32;17.40;99.90
2212;DHT22;48849;48.758;9.158;2023-05-20T09:43:05;17.40;99.90
2212;DHT22;48849;48.758;9.158;2023-05-20T09:45:40;17.50;99.90
2212;DHT22;48849;48.758;9.158;2023-05-20T09:48:10;17.50;99.90
2212;DHT22;48849;48.758;9.158;2023-05-20T09:50:40;17.50;99.90
2212;DHT22;48849;48.758;9.158;2023-05-20T09:53:09;17.60;99.90
2212;DHT22;48849;48.758;9.158;2023-05-20T09:55:49;17.60;99.90
2212;DHT22;48849;48.758;9.158;2023-05-20T09:58:19;17.60;99.90
2212;DHT22;48849;48.758;9.158;2023-05-20T10:00:48;17.70;99.90
2212;DHT22;48849;48.758;9.158;2023-05-20T10:03:18;17.70;99.90
2212;DHT22;48849;48.758;9.158;2023-05-20T10:09:23;17.80;99.90
2212;DHT22;48849;48.758;9.158;2023-05-20T10:12:15;17.80;99.90
2212;DHT22;48849;48.758;9.158;2023-05-20T10:15:15;17.90;99.90
2212;DHT22;48849;48.758;9.158;2023-05-20T10:18:10;17.90;99.90
2212;DHT22;48849;48.758;9.158;2023-05-20T10:20:53;17.90;99.90
2212;DHT22;48849;48.758;9.158;2023-05-20T10:23:28;18.00;99.90
2212;DHT22;48849;48.758;9.158;2023-05-20T10:26:05;18.00;99.90
2212;DHT22;48849;48.758;9.158;2023-05-20T10:28:53;18.10;99.90
2212;DHT22;48849;48.758;9.158;2023-05-20T10:31:26;18.10;99.90
2212;DHT22;48849;48.758;9.158;2023-05-20T10:34:13;18.20;99.90
2212;DHT22;48849;48.758;9.158;2023-05-20T10:36:45;18.20;99.90
2212;DHT22;48849;48.758;9.158;2023-05-20T10:39:14;18.30;99.90
2212;DHT22;48849;48.758;9.158;2023-05-20T10:42:07;18.30;99.90
2212;DHT22;48849;48.758;9.158;2023-05-20T10:44:45;18.40;99.90
2212;DHT22;48849;48.758;9.158;2023-05-20T10:47:21;18.40;99.90
2212;DHT22;48849;48.758;9.158;2023-05-20T10:50:00;18.40;99.90
2212;DHT22;48849;48.758;9.158;2023-05-20T10:52:42;18.40;99.90
2212;DHT22;48849;48.758;9.158;2023-05-20T10:55:24;18.40;99.90
2212;DHT22;48849;48.758;9.158;2023-05-20T10:58:01;18.60;99.90
2212;DHT22;48849;48.758;9.158;2023-05-20T11:00:39;18.60;99.90
2212;DHT22;48849;48.758;9.158;2023-05-20T11:03:17;18.70;99.90
2212;DHT22;48849;48.758;9.158;2023-05-20T11:05:58;18.80;99.90
2212;DHT22;48849;48.758;9.158;2023-05-20T11:08:48;18.90;99.90
2212;DHT22;48849;48.758;9.158;2023-05-20T11:11:33;18.90;99.90
2212;DHT22;48849;48.758;9.158;2023-05-20T11:14:13;19.00;99.90
2212;DHT22;48849;48.758;9.158;2023-05-20T11:16:50;19.10;99.90
2212;DHT22;48849;48.758;9.158;2023-05-20T11:19:22;19.30;99.90
2212;DHT22;48849;48.758;9.158;2023-05-20T11:21:55;19.30;99.90
2212;DHT22;48849;48.758;9.158;2023-05-20T11:24:38;19.40;99.90
2212;DHT22;48849;48.758;9.158;2023-05-20T11:27:33;19.50;99.90
2212;DHT22;48849;48.758;9.158;2023-05-20T11:30:22;19.50;99.90
2212;DHT22;48849;48.758;9.158;2023-05-20T11:33:03;19.70;99.90
2212;DHT22;48849;48.758;9.158;2023-05-20T11:35:49;19.70;99.90
2212;DHT22;48849;48.758;9.158;2023-05-20T11:38:24;19.80;99.90
2212;DHT22;48849;48.758;9.158;2023-05-20T11:40:58;19.90;99.90
2212;DHT22;48849;48.758;9.158;2023-05-20T11:43:28;19.80;99.90
2212;DHT22;48849;48.758;9.158;2023-05-20T11:46:14;19.80;99.90
2212;DHT22;48849;48.758;9.158;2023-05-20T11:49:01;19.80;99.90
2212;DHT22;48849;48.758;9.158;2023-05-20T11:51:34;19.80;99.90
2212;DHT22;48849;48.758;9.158;2023-05-20T11:54:24;19.80;99.90
2212;DHT22;48849;48.758;9.158;2023-05-20T11:57:12;19.80;99.90
2212;DHT22;48849;48.758;9.158;2023-05-20T12:00:03;19.70;99.90
2212;DHT22;48849;48.758;9.158;2023-05-20T12:02:52;19.60;99.90
2212;DHT22;48849;48.758;9.158;2023-05-20T12:05:37;19.60;99.90
2212;DHT22;48849;48.758;9.158;2023-05-20T12:08:12;19.50;99.90
2212;DHT22;48849;48.758;9.158;2023-05-20T12:10:53;19.50;99.90
2212;DHT22;48849;48.758;9.158;2023-05-20T12:13:25;19.60;99.90
2212;DHT22;48849;48.758;9.158;2023-05-20T12:15:57;19.70;99.90
2212;DHT22;48849;48.758;9.158;2023-05-20T12:18:38;19.90;99.90
2212;DHT22;48849;48.758;9.158;2023-05-20T12:21:05;20.10;99.90
2212;DHT22;48849;48.758;9.158;2023-05-20T12:23:51;20.30;99.90
2212;DHT22;48849;48.758;9.158;2023-05-20T12:29:20;20.70;99.90
2212;DHT22;48849;48.758;9.158;2023-05-20T12:32:36;20.80;99.90
2212;DHT22;48849;48.758;9.158;2023-05-20T12:39:11;21.00;99.90
2212;DHT22;48849;48.758;9.158;2023-05-20T12:41:53;21.10;99.90
2212;DHT22;48849;48.758;9.158;2023-05-20T12:44:26;21.10;99.90
2212;DHT22;48849;48.758;9.158;2023-05-20T12:47:25;21.00;99.90
2212;DHT22;48849;48.758;9.158;2023-05-20T12:50:02;21.10;99.90
2212;DHT22;48849;48.758;9.158;2023-05-20T12:52:40;21.10;99.90
2212;DHT22;48849;48.758;9.158;2023-05-20T12:58:37;21.20;99.90
2212;DHT22;48849;48.758;9.158;2023-05-20T13:01:23;21.20;99.90
2212;DHT22;48849;48.758;9.158;2023-05-20T13:04:08;21.50;99.90
2212;DHT22;48849;48.758;9.158;2023-05-20T13:06:54;21.90;99.90
2212;DHT22;48849;48.758;9.158;2023-05-20T13:09:30;22.10;99.90
2212;DHT22;48849;48.758;9.158;2023-05-20T13:12:01;22.00;99.90
2212;DHT22;48849;48.758;9.158;2023-05-20T13:14:59;21.90;99.90
2212;DHT22;48849;48.758;9.158;2023-05-20T13:17:37;22.10;99.90
2212;DHT22;48849;48.758;9.158;2023-05-20T13:20:40;22.40;99.90
2212;DHT22;48849;48.758;9.158;2023-05-20T13:26:39;23.60;99.90
2212;DHT22;48849;48.758;9.158;2023-05-20T13:29:17;23.60;99.90
2212;DHT22;48849;48.758;9.158;2023-05-20T13:31:50;23.40;99.90
2212;DHT22;48849;48.758;9.158;2023-05-20T13:34:29;23.30;99.90
2212;DHT22;48849;48.758;9.158;2023-05-20T13:37:09;23.20;99.90
2212;DHT22;48849;48.758;9.158;2023-05-20T13:39:44;23.10;99.90
2212;DHT22;48849;48.758;9.158;2023-05-20T13:42:14;23.20;99.90
2212;DHT22;48849;48.758;9.158;2023-05-20T13:44:48;23.20;99.90
2212;DHT22;48849;48.758;9.158;2023-05-20T13:47:23;23.20;99.90
2212;DHT22;48849;48.758;9.158;2023-05-20T13:49:56;23.20;99.90
2212;DHT22;48849;48.758;9.158;2023-05-20T13:52:37;23.10;99.90
2212;DHT22;48849;48.758;9.158;2023-05-20T13:55:09;22.90;99.90
2212;DHT22;48849;48.758;9.158;2023-05-20T13:57:44;22.60;99.90
2212;DHT22;48849;48.758;9.158;2023-05-20T14:00:20;22.30;99.90
2212;DHT22;48849;48.758;9.158;2023-05-20T14:02:50;22.20;99.90
2212;DHT22;48849;48.758;9.158;2023-05-20T14:05:22;21.90;99.90
2212;DHT22;48849;48.758;9.158;2023-05-20T14:08:09;21.80;99.90
2212;DHT22;48849;48.758;9.158;2023-05-20T14:10:53;21.50;99.90
2212;DHT22;48849;48.758;9.158;2023-05-20T14:13:37;21.40;99.90
2212;DHT22;48849;48.758;9.158;2023-05-20T14:16:10;21.20;99.90
2212;DHT22;48849;48.758;9.158;2023-05-20T14:18:52;21.10;99.90
2212;DHT22;48849;48.758;9.158;2023-05-20T14:21:20;21.00;99.90
2212;DHT22;48849;48.758;9.158;2023-05-20T14:23:52;20.90;99.90
2212;DHT22;48849;48.758;9.158;2023-05-20T14:26:33;20.80;99.90
2212;DHT22;48849;48.758;9.158;2023-05-20T14:29:04;20.70;99.90
2212;DHT22;48849;48.758;9.158;2023-05-20T14:31:33;20.70;99.90
2212;DHT22;48849;48.758;9.158;2023-05-20T14:34:20;20.60;99.90
2212;DHT22;48849;48.758;9.158;2023-05-20T14:36:56;20.60;99.90
2212;DHT22;48849;48.758;9.158;2023-05-20T14:39:35;20.50;99.90
2212;DHT22;48849;48.758;9.158;2023-05-20T14:42:23;20.50;99.90
2212;DHT22;48849;48.758;9.158;2023-05-20T14:44:59;20.50;99.90
2212;DHT22;48849;48.758;9.158;2023-05-20T14:47:34;20.50;99.90
2212;DHT22;48849;48.758;9.158;2023-05-20T14:50:07;20.50;99.90
2212;DHT22;48849;48.758;9.158;2023-05-20T14:52:38;20.40;99.90
2212;DHT22;48849;48.758;9.158;2023-05-20T14:55:10;20.30;99.90
2212;DHT22;48849;48.758;9.158;2023-05-20T14:57:39;20.30;99.90
2212;DHT22;48849;48.758;9.158;2023-05-20T15:00:09;20.30;99.90
2212;DHT22;48849;48.758;9.158;2023-05-20T15:02:50;20.30;99.90
2212;DHT22;48849;48.758;9.158;2023-05-20T15:05:19;20.30;99.90
2212;DHT22;48849;48.758;9.158;2023-05-20T15:07:46;20.20;99.90
2212;DHT22;48849;48.758;9.158;2023-05-20T15:10:13;20.20;99.90
2212;DHT22;48849;48.758;9.158;2023-05-20T15:12:45;20.20;99.90
2212;DHT22;48849;48.758;9.158;2023-05-20T15:15:25;20.20;99.90
2212;DHT22;48849;48.758;9.158;2023-05-20T15:18:02;20.20;99.90
2212;DHT22;48849;48.758;9.158;2023-05-20T15:20:36;20.10;99.90
2212;DHT22;48849;48.758;9.158;2023-05-20T15:23:06;20.10;99.90
2212;DHT22;48849;48.758;9.158;2023-05-20T15:28:26;20.10;99.90
2212;DHT22;48849;48.758;9.158;2023-05-20T15:30:55;20.00;99.90
2212;DHT22;48849;48.758;9.158;2023-05-20T15:33:22;20.00;99.90
2212;DHT22;48849;48.758;9.158;2023-05-20T15:35:58;20.00;99.90
2212;DHT22;48849;48.758;9.158;2023-05-20T15:38:28;19.90;99.90
2212;DHT22;48849;48.758;9.158;2023-05-20T15:40:55;19.80;99.90
2212;DHT22;48849;48.758;9.158;2023-05-20T15:43:26;19.80;99.90
2212;DHT22;48849;48.758;9.158;2023-05-20T15:46:00;19.80;99.90
2212;DHT22;48849;48.758;9.158;2023-05-20T15:48:35;19.80;99.90
2212;DHT22;48849;48.758;9.158;2023-05-20T15:51:11;19.70;99.90
2212;DHT22;48849;48.758;9.158;2023-05-20T15:53:50;19.50;99.90
2212;DHT22;48849;48.758;9.158;2023-05-20T15:56:21;19.30;99.90
2212;DHT22;48849;48.758;9.158;2023-05-20T15:58:53;19.00;99.90
2212;DHT22;48849;48.758;9.158;2023-05-20T16:01:30;18.90;99.90
2212;DHT22;48849;48.758;9.158;2023-05-20T16:04:08;18.80;99.90
2212;DHT22;48849;48.758;9.158;2023-05-20T16:06:51;18.70;99.90
2212;DHT22;48849;48.758;9.158;2023-05-20T16:09:27;18.70;99.90
2212;DHT22;48849;48.758;9.158;2023-05-20T16:12:02;18.70;99.90
2212;DHT22;48849;48.758;9.158;2023-05-20T16:14:34;18.60;99.90
2212;DHT22;48849;48.758;9.158;2023-05-20T16:17:18;18.60;99.90
2212;DHT22;48849;48.758;9.158;2023-05-20T16:19:57;18.60;99.90
2212;DHT22;48849;48.758;9.158;2023-05-20T16:22:38;18.50;99.90
2212;DHT22;48849;48.758;9.158;2023-05-20T16:25:24;18.50;99.90
2212;DHT22;48849;48.758;9.158;2023-05-20T16:28:03;18.50;99.90
2212;DHT22;48849;48.758;9.158;2023-05-20T16:30:44;18.50;99.90
2212;DHT22;48849;48.758;9.158;2023-05-20T16:33:20;18.50;99.90
2212;DHT22;48849;48.758;9.158;2023-05-20T16:36:01;18.60;99.90